createdAt,value
2018-12-11T00:00:27.857Z,1.37
2018-12-11T00:03:00.977Z,1.47
2018-12-11T00:05:32.445Z,2.00
2018-12-11T00:08:05.962Z,1.70
2018-12-11T00:10:38.902Z,1.97
2018-12-11T00:13:09.546Z,2.33
2018-12-11T00:15:42.800Z,1.60
2018-12-11T00:18:15.713Z,1.60
2018-12-11T00:20:47.240Z,1.80
2018-12-11T00:23:20.923Z,2.10
2018-12-11T00:25:54.520Z,2.33
2018-12-11T00:28:25.943Z,1.50
2018-12-11T00:30:57.216Z,2.20
2018-12-11T00:33:30.440Z,1.70
2018-12-11T00:36:04.687Z,2.07
2018-12-11T00:38:38.226Z,2.63
2018-12-11T00:41:09.660Z,2.10
2018-12-11T00:43:43.132Z,1.70
2018-12-11T00:46:14.555Z,1.87
2018-12-11T00:48:48.067Z,1.90
2018-12-11T00:51:21.197Z,2.67
2018-12-11T00:53:55.212Z,2.10
2018-12-11T00:56:26.706Z,1.67
2018-12-11T00:59:00.109Z,4.03
2018-12-11T01:01:33.876Z,1.93
2018-12-11T01:04:05.332Z,1.80
2018-12-11T01:06:36.649Z,1.73
2018-12-11T01:09:07.723Z,1.90
2018-12-11T01:11:40.849Z,3.27
2018-12-11T01:14:17.840Z,1.73
2018-12-11T01:16:50.884Z,2.13
2018-12-11T01:19:24.645Z,2.23
2018-12-11T01:24:46.112Z,3.03
2018-12-11T01:27:19.457Z,2.67
2018-12-11T01:29:50.788Z,2.27
2018-12-11T01:32:26.343Z,2.93
2018-12-11T01:34:57.904Z,1.40
2018-12-11T01:37:31.138Z,2.53
2018-12-11T01:40:02.933Z,2.37
2018-12-11T01:42:36.417Z,2.60
2018-12-11T01:45:09.799Z,2.17
2018-12-11T01:47:41.067Z,1.80
2018-12-11T01:50:12.160Z,1.80
2018-12-11T01:52:45.453Z,1.97
2018-12-11T01:55:18.483Z,3.23
2018-12-11T01:57:52.411Z,1.90
2018-12-11T02:00:26.040Z,2.77
2018-12-11T02:02:57.228Z,2.30
2018-12-11T02:05:28.724Z,2.43
2018-12-11T02:07:59.801Z,2.40
2018-12-11T02:10:30.809Z,2.27
2018-12-11T02:13:04.159Z,2.40
2018-12-11T02:15:39.270Z,1.67
2018-12-11T02:18:12.336Z,2.03
2018-12-11T02:20:43.708Z,1.97
2018-12-11T02:23:17.092Z,2.20
2018-12-11T02:25:50.130Z,2.07
2018-12-11T02:28:21.566Z,2.50
2018-12-11T02:30:56.746Z,2.67
2018-12-11T02:33:28.361Z,2.37
2018-12-11T02:36:01.471Z,2.00
2018-12-11T02:38:32.992Z,3.33
2018-12-11T02:41:03.613Z,3.20
2018-12-11T02:43:36.957Z,2.77
2018-12-11T02:46:09.947Z,2.57
2018-12-11T02:48:41.089Z,1.90
2018-12-11T02:51:14.272Z,2.67
2018-12-11T02:53:45.745Z,1.80
2018-12-11T02:56:16.522Z,1.67
2018-12-11T02:58:49.844Z,2.50
2018-12-11T03:01:23.186Z,2.70
2018-12-11T03:03:54.481Z,2.20
2018-12-11T03:06:27.816Z,2.93
2018-12-11T03:09:01.036Z,2.03
2018-12-11T03:11:32.336Z,1.87
2018-12-11T03:14:05.636Z,2.53
2018-12-11T03:16:37.036Z,1.87
2018-12-11T03:19:10.403Z,2.30
2018-12-11T03:21:43.317Z,2.10
2018-12-11T03:24:16.343Z,2.60
2018-12-11T03:26:49.475Z,2.67
2018-12-11T03:29:20.704Z,2.20
2018-12-11T03:31:51.647Z,3.33
2018-12-11T03:34:25.010Z,2.43
2018-12-11T03:36:56.715Z,2.10
2018-12-11T03:39:29.814Z,2.53
2018-12-11T03:42:02.728Z,1.83
2018-12-11T03:44:34.237Z,2.93
2018-12-11T03:47:07.407Z,1.40
2018-12-11T03:49:38.911Z,1.50
2018-12-11T03:52:09.796Z,2.60
2018-12-11T03:54:43.314Z,1.63
2018-12-11T03:57:13.943Z,1.30
2018-12-11T03:59:47.321Z,1.50
2018-12-11T04:02:20.888Z,2.37
2018-12-11T04:04:54.245Z,2.40
2018-12-11T04:07:27.168Z,2.40
2018-12-11T04:09:57.606Z,2.07
2018-12-11T04:12:31.217Z,1.87
2018-12-11T04:15:06.465Z,1.90
2018-12-11T04:17:40.474Z,2.53
2018-12-11T04:20:12.684Z,2.40
2018-12-11T04:22:46.628Z,1.87
2018-12-11T04:25:21.117Z,1.60
2018-12-11T04:27:53.962Z,1.60
2018-12-11T04:30:25.357Z,2.40
2018-12-11T04:32:56.402Z,1.80
2018-12-11T04:35:29.761Z,2.13
2018-12-11T04:38:01.074Z,2.20
2018-12-11T04:40:32.100Z,2.50
2018-12-11T04:43:03.100Z,1.63
2018-12-11T04:45:33.727Z,1.60
2018-12-11T04:48:07.188Z,2.73
2018-12-11T04:50:38.528Z,2.10
2018-12-11T04:55:47.042Z,1.67
2018-12-11T04:58:18.466Z,2.37
2018-12-11T05:00:49.557Z,1.60
2018-12-11T05:03:20.893Z,1.60
2018-12-11T05:05:54.144Z,1.60
2018-12-11T05:08:24.946Z,1.53
2018-12-11T05:10:56.088Z,1.63
2018-12-11T05:13:29.499Z,2.57
2018-12-11T05:16:02.489Z,1.40
2018-12-11T05:18:33.919Z,1.63
2018-12-11T05:24:05.076Z,2.03
2018-12-11T05:26:38.240Z,1.73
2018-12-11T05:29:11.436Z,3.47
2018-12-11T05:31:42.898Z,2.77
2018-12-11T05:34:16.376Z,3.73
2018-12-11T05:36:50.075Z,2.43
2018-12-11T05:39:21.574Z,2.20
2018-12-11T05:41:54.923Z,2.03
2018-12-11T05:44:26.433Z,2.40
2018-12-11T05:47:00.864Z,1.90
2018-12-11T05:49:33.968Z,2.00
2018-12-11T05:52:10.884Z,1.53
2018-12-11T05:54:44.011Z,1.90
2018-12-11T05:57:17.148Z,1.60
2018-12-11T06:09:53.469Z,1.57
2018-12-11T06:12:26.755Z,1.33
2018-12-11T06:14:57.912Z,1.70
2018-12-11T06:17:29.238Z,1.30
2018-12-11T06:20:02.780Z,1.73
2018-12-11T06:22:35.688Z,2.17
2018-12-11T06:25:08.660Z,2.00
2018-12-11T06:27:39.745Z,1.53
2018-12-11T06:30:10.913Z,2.30
2018-12-11T06:32:44.497Z,1.47
2018-12-11T06:35:15.660Z,2.63
2018-12-11T06:37:49.084Z,2.43
2018-12-11T06:40:22.124Z,1.83
2018-12-11T06:42:59.218Z,1.43
2018-12-11T06:45:30.713Z,1.63
2018-12-11T06:48:03.901Z,2.10
2018-12-11T06:50:40.981Z,2.17
2018-12-11T06:53:13.987Z,1.97
2018-12-11T06:55:51.027Z,1.93
2018-12-11T06:58:31.575Z,2.50
2018-12-11T07:01:19.661Z,1.50
2018-12-11T07:03:54.762Z,1.37
2018-12-11T07:06:27.898Z,1.83
2018-12-11T07:08:59.146Z,1.60
2018-12-11T07:11:32.638Z,1.50
2018-12-11T07:14:06.540Z,2.70
2018-12-11T07:16:37.841Z,4.03
2018-12-11T07:19:11.444Z,3.90
2018-12-11T07:21:45.267Z,2.20
2018-12-11T07:24:18.939Z,2.17
2018-12-11T07:26:50.574Z,2.87
2018-12-11T07:29:23.784Z,3.03
2018-12-11T07:31:55.348Z,2.27
2018-12-11T07:34:26.177Z,3.77
2018-12-11T07:36:57.578Z,2.90
2018-12-11T07:39:32.932Z,4.60
2018-12-11T07:42:04.236Z,2.27
2018-12-11T07:44:35.460Z,2.90
2018-12-11T07:47:08.969Z,2.90
2018-12-11T07:49:44.693Z,2.53
2018-12-11T07:52:18.312Z,2.33
2018-12-11T07:54:49.914Z,1.80
2018-12-11T07:57:21.978Z,2.43
2018-12-11T07:59:55.908Z,2.57
2018-12-11T08:02:27.871Z,2.33
2018-12-11T08:05:02.088Z,1.90
2018-12-11T08:07:33.910Z,1.97
2018-12-11T08:10:09.700Z,2.60
2018-12-11T08:12:43.421Z,1.77
2018-12-11T08:15:18.755Z,2.23
2018-12-11T08:17:52.564Z,2.43
2018-12-11T08:20:23.744Z,2.07
2018-12-11T08:22:57.280Z,1.60
2018-12-11T08:25:31.026Z,2.27
2018-12-11T08:28:04.779Z,1.30
2018-12-11T08:30:38.434Z,1.50
2018-12-11T08:33:09.923Z,2.77
2018-12-11T08:35:43.368Z,1.87
2018-12-11T08:38:14.733Z,1.77
2018-12-11T08:40:48.030Z,1.77
2018-12-11T08:43:19.548Z,1.83
2018-12-11T08:45:52.968Z,1.60
2018-12-11T08:48:24.087Z,2.03
2018-12-11T08:50:55.529Z,1.80
2018-12-11T08:53:29.414Z,3.07
2018-12-11T08:56:01.227Z,2.07
2018-12-11T08:58:40.862Z,2.20
2018-12-11T09:01:14.677Z,2.13
2018-12-11T09:03:48.318Z,2.30
2018-12-11T09:06:19.901Z,1.70
2018-12-11T09:08:52.907Z,3.13
2018-12-11T09:11:26.037Z,2.07
2018-12-11T09:19:01.564Z,2.20
2018-12-11T09:21:37.518Z,1.40
2018-12-11T09:24:16.443Z,1.83
2018-12-11T09:27:01.915Z,2.00
2018-12-11T09:29:45.831Z,1.90
2018-12-11T09:32:29.486Z,1.73
2018-12-11T09:35:00.512Z,2.13
2018-12-11T09:37:34.063Z,1.30
2018-12-11T09:40:07.558Z,2.67
2018-12-11T09:42:44.260Z,1.57
2018-12-11T09:45:15.898Z,1.70
2018-12-11T09:47:49.098Z,1.77
2018-12-11T09:50:31.190Z,1.37
2018-12-11T09:53:04.706Z,1.40
2018-12-11T09:55:36.484Z,1.73
2018-12-11T09:58:10.816Z,2.20
2018-12-11T10:00:44.788Z,1.40
2018-12-11T10:03:16.606Z,2.53
2018-12-11T10:05:54.635Z,2.27
2018-12-11T10:08:26.083Z,1.43
2018-12-11T10:10:57.804Z,2.67
2018-12-11T10:13:32.864Z,1.80
2018-12-11T10:16:04.494Z,1.63
2018-12-11T10:18:36.256Z,1.60
2018-12-11T10:33:45.112Z,1.97
2018-12-11T10:36:18.202Z,1.73
2018-12-11T10:38:49.643Z,1.87
2018-12-11T10:41:21.092Z,2.57
2018-12-11T10:43:54.337Z,2.17
2018-12-11T10:46:25.893Z,1.33
2018-12-11T10:48:59.313Z,2.37
2018-12-11T10:51:30.673Z,2.23
2018-12-11T10:54:04.163Z,1.40
2018-12-11T10:56:38.855Z,1.67
2018-12-11T10:59:11.826Z,1.20
2018-12-11T11:01:46.218Z,1.50
2018-12-11T11:04:17.928Z,1.00
2018-12-11T11:06:53.101Z,2.30
2018-12-11T11:09:24.850Z,1.30
2018-12-11T11:11:56.159Z,1.30
2018-12-11T11:14:27.048Z,1.13
2018-12-11T11:16:58.725Z,1.43
2018-12-11T11:19:34.047Z,2.30
2018-12-11T11:22:05.394Z,1.10
2018-12-11T11:24:38.574Z,1.47
2018-12-11T11:27:11.664Z,1.97
2018-12-11T11:29:44.776Z,1.93
2018-12-11T11:32:15.636Z,1.10
2018-12-11T11:34:48.702Z,1.47
2018-12-11T11:37:20.316Z,1.30
2018-12-11T11:39:53.423Z,1.73
2018-12-11T11:42:26.665Z,1.80
2018-12-11T11:44:58.259Z,1.53
2018-12-11T11:47:31.376Z,1.37
2018-12-11T11:50:03.413Z,1.53
2018-12-11T11:52:37.053Z,1.77
2018-12-11T11:55:08.508Z,1.57
2018-12-11T11:57:41.592Z,1.20
2018-12-11T12:00:15.319Z,1.70
2018-12-11T12:02:48.541Z,1.50
2018-12-11T12:05:20.199Z,0.93
2018-12-11T12:07:53.245Z,1.73
2018-12-11T12:10:26.347Z,1.67
2018-12-11T12:13:00.033Z,1.90
2018-12-11T12:15:37.833Z,2.47
2018-12-11T12:18:11.763Z,1.20
2018-12-11T12:20:43.176Z,2.17
2018-12-11T12:23:16.444Z,1.70
2018-12-11T12:25:48.040Z,1.50
2018-12-11T12:28:18.925Z,2.23
2018-12-11T12:30:50.612Z,1.47
2018-12-11T12:33:25.698Z,1.10
2018-12-11T12:36:03.478Z,1.33
2018-12-11T12:38:37.447Z,1.83
2018-12-11T12:41:10.382Z,1.30
2018-12-11T12:43:44.480Z,1.30
2018-12-11T12:46:18.179Z,1.83
2018-12-11T12:48:49.571Z,1.60
2018-12-11T12:51:23.180Z,1.27
2018-12-11T12:53:54.483Z,1.73
2018-12-11T12:56:27.860Z,1.67
2018-12-11T12:59:05.567Z,0.97
2018-12-11T13:01:39.495Z,1.13
2018-12-11T13:04:13.113Z,1.33
2018-12-11T13:06:44.714Z,1.10
2018-12-11T13:09:18.012Z,1.77
2018-12-11T13:11:49.199Z,1.30
2018-12-11T13:14:19.960Z,1.63
2018-12-11T13:16:53.690Z,1.40
2018-12-11T13:19:27.665Z,1.90
2018-12-11T13:22:01.253Z,1.90
2018-12-11T13:24:34.305Z,1.47
2018-12-11T13:27:05.658Z,1.63
2018-12-11T13:29:39.150Z,1.30
2018-12-11T13:32:12.046Z,2.00
2018-12-11T13:34:45.883Z,1.47
2018-12-11T13:37:21.039Z,1.50
2018-12-11T13:39:54.074Z,1.97
2018-12-11T13:42:27.140Z,1.60
2018-12-11T13:45:00.418Z,1.60
2018-12-11T13:47:32.172Z,1.97
2018-12-11T13:50:06.993Z,1.10
2018-12-11T13:52:39.433Z,1.17
2018-12-11T13:55:12.759Z,1.60
2018-12-11T13:57:44.354Z,1.50
2018-12-11T14:00:19.514Z,1.80
2018-12-11T14:02:51.079Z,1.60
2018-12-11T14:05:24.584Z,1.07
2018-12-11T14:07:55.894Z,1.03
2018-12-11T14:10:29.346Z,1.00
2018-12-11T14:13:02.336Z,1.40
2018-12-11T14:15:33.715Z,1.10
2018-12-11T14:18:06.947Z,1.40
2018-12-11T14:20:40.149Z,1.27
2018-12-11T14:23:13.845Z,1.27
2018-12-11T14:25:47.537Z,2.17
2018-12-11T14:28:19.133Z,1.43
2018-12-11T14:30:50.324Z,1.80
2018-12-11T14:33:23.512Z,2.03
2018-12-11T14:35:54.972Z,1.30
2018-12-11T14:38:26.442Z,2.27
2018-12-11T14:40:59.937Z,1.57
2018-12-11T14:43:31.546Z,2.10
2018-12-11T14:46:04.589Z,1.90
2018-12-11T14:48:35.968Z,1.97
2018-12-11T14:51:13.356Z,2.33
2018-12-11T14:53:44.940Z,2.00
2018-12-11T14:56:18.308Z,1.87
2018-12-11T14:58:49.760Z,2.73
2018-12-11T15:01:20.956Z,1.70
2018-12-11T15:03:54.366Z,1.47
2018-12-11T15:06:27.500Z,2.00
2018-12-11T15:10:06.757Z,1.50
2018-12-11T15:12:40.494Z,1.83
2018-12-11T15:15:11.997Z,1.30
2018-12-11T15:17:45.493Z,2.03
2018-12-11T15:20:18.473Z,2.13
2018-12-11T15:22:51.638Z,2.10
2018-12-11T15:25:22.828Z,1.83
2018-12-11T15:27:53.994Z,1.93
2018-12-11T15:30:27.362Z,1.80
2018-12-11T15:33:00.397Z,1.67
2018-12-11T15:35:33.412Z,1.57
2018-12-11T15:38:06.329Z,1.90
2018-12-11T15:40:39.380Z,1.30
2018-12-11T15:43:10.842Z,1.53
2018-12-11T15:45:44.116Z,1.80
2018-12-11T15:48:17.228Z,1.80
2018-12-11T15:50:48.663Z,1.63
2018-12-11T15:53:21.991Z,1.83
2018-12-11T15:55:55.048Z,1.60
2018-12-11T15:58:28.083Z,3.07
2018-12-11T16:01:01.652Z,1.77
2018-12-11T16:03:35.545Z,1.93
2018-12-11T16:06:08.531Z,1.97
2018-12-11T16:08:39.859Z,2.23
2018-12-11T16:11:15.121Z,2.03
2018-12-11T16:13:46.639Z,2.20
2018-12-11T16:16:19.801Z,1.80
2018-12-11T16:18:51.200Z,1.50
2018-12-11T16:21:24.701Z,1.63
2018-12-11T16:23:56.242Z,1.50
2018-12-11T16:26:29.248Z,1.63
2018-12-11T16:29:02.406Z,1.83
2018-12-11T16:31:36.164Z,1.53
2018-12-11T16:34:11.142Z,2.00
2018-12-11T16:36:44.040Z,1.97
2018-12-11T16:39:16.993Z,1.30
2018-12-11T16:41:54.016Z,1.57
2018-12-11T16:44:26.859Z,2.33
2018-12-11T16:47:00.050Z,1.60
2018-12-11T16:49:31.642Z,1.63
2018-12-11T16:52:04.944Z,1.93
2018-12-11T16:54:38.200Z,1.33
2018-12-11T16:57:09.435Z,2.10
2018-12-11T16:59:42.729Z,1.90
2018-12-11T17:02:14.156Z,2.07
2018-12-11T17:04:47.570Z,1.97
2018-12-11T17:07:18.993Z,1.73
2018-12-11T17:09:52.714Z,2.13
2018-12-11T17:12:24.441Z,2.17
2018-12-11T17:14:58.068Z,2.23
2018-12-11T17:17:31.562Z,3.00
2018-12-11T17:20:02.928Z,4.40
2018-12-11T17:22:33.612Z,3.13
2018-12-11T17:25:07.206Z,3.23
2018-12-11T17:27:38.643Z,2.43
2018-12-11T17:30:12.314Z,2.20
2018-12-11T17:32:48.254Z,2.23
2018-12-11T17:35:19.970Z,2.53
2018-12-11T17:37:53.109Z,1.83
2018-12-11T17:40:23.856Z,2.40
2018-12-11T17:42:57.035Z,2.67
2018-12-11T17:45:30.337Z,2.60
2018-12-11T17:48:01.941Z,2.27
2018-12-11T17:50:32.732Z,2.00
2018-12-11T17:53:03.808Z,2.17
2018-12-11T17:55:36.891Z,1.87
2018-12-11T17:58:07.659Z,2.13
2018-12-11T18:00:41.086Z,1.83
2018-12-11T18:03:21.892Z,2.53
2018-12-11T18:05:53.229Z,2.00
2018-12-11T18:08:24.149Z,2.63
2018-12-11T18:10:57.484Z,3.30
2018-12-11T18:13:28.733Z,2.10
2018-12-11T18:16:08.991Z,2.33
2018-12-11T18:18:40.462Z,2.93
2018-12-11T18:21:16.649Z,3.27
2018-12-11T18:23:51.709Z,2.60
2018-12-11T18:26:29.504Z,3.07
2018-12-11T18:29:15.821Z,1.90
2018-12-11T18:31:47.605Z,2.37
2018-12-11T18:34:19.182Z,2.17
2018-12-11T18:36:53.197Z,2.73
2018-12-11T18:39:27.207Z,2.97
2018-12-11T18:42:00.128Z,3.23
2018-12-11T18:44:33.544Z,3.07
2018-12-11T18:47:05.120Z,3.20
2018-12-11T18:52:09.780Z,3.70
2018-12-11T18:54:41.295Z,3.20
2018-12-11T18:57:18.981Z,4.13
2018-12-11T18:59:50.516Z,3.73
2018-12-11T19:04:58.422Z,3.13
2018-12-11T19:07:32.269Z,2.60
2018-12-11T19:10:08.147Z,3.33
2018-12-11T19:12:41.948Z,3.73
2018-12-11T19:15:18.193Z,4.20
2018-12-11T19:17:51.594Z,4.57
2018-12-11T19:20:25.246Z,4.07
2018-12-11T19:23:04.452Z,3.23
2018-12-11T19:25:37.531Z,3.17
2018-12-11T19:28:11.293Z,3.63
2018-12-11T19:30:57.153Z,3.27
2018-12-11T19:33:30.296Z,3.10
2018-12-11T19:36:06.345Z,3.50
2018-12-11T19:38:38.355Z,3.77
2018-12-11T19:41:12.523Z,3.73
2018-12-11T19:43:44.288Z,3.40
2018-12-11T19:46:17.622Z,3.70
2018-12-11T19:48:51.435Z,3.70
2018-12-11T19:51:27.237Z,3.80
2018-12-11T19:54:01.130Z,3.67
2018-12-11T19:56:35.411Z,3.57
2018-12-11T19:59:12.863Z,3.30
2018-12-11T20:01:57.681Z,4.23
2018-12-11T20:04:29.979Z,3.93
2018-12-11T20:07:03.629Z,3.30
2018-12-11T20:09:44.229Z,3.70
2018-12-11T20:12:18.471Z,3.43
2018-12-11T20:15:04.434Z,3.30
2018-12-11T20:17:38.734Z,3.93
2018-12-11T20:20:18.225Z,3.73
2018-12-11T20:22:52.591Z,3.83
2018-12-11T20:25:28.723Z,3.43
2018-12-11T20:28:00.701Z,3.80
2018-12-11T20:30:32.405Z,3.20
2018-12-11T20:33:05.792Z,3.40
2018-12-11T20:35:40.338Z,3.27
2018-12-11T20:38:21.840Z,3.37
2018-12-11T20:41:01.727Z,3.73
2018-12-11T20:43:33.019Z,3.40
2018-12-11T20:46:10.932Z,3.13
2018-12-11T20:48:47.027Z,3.60
2018-12-11T20:51:28.277Z,3.97
2018-12-11T20:54:04.625Z,4.07
2018-12-11T20:56:37.886Z,3.60
2018-12-11T20:59:15.398Z,4.00
2018-12-11T21:01:50.124Z,3.37
2018-12-11T21:04:23.904Z,3.40
2018-12-11T21:06:55.492Z,3.57
2018-12-11T21:09:27.022Z,3.20
2018-12-11T21:12:00.308Z,3.37
2018-12-11T21:14:40.675Z,5.43
2018-12-11T21:17:13.988Z,3.03
2018-12-11T21:19:49.766Z,2.90
2018-12-11T21:22:21.389Z,3.37
2018-12-11T21:24:54.776Z,3.77
2018-12-11T21:27:27.250Z,3.73
2018-12-11T21:30:01.399Z,4.30
2018-12-11T21:32:34.804Z,3.80
2018-12-11T21:35:07.547Z,3.67
2018-12-11T21:37:43.267Z,3.17
2018-12-11T21:40:19.050Z,2.93
2018-12-11T21:42:52.206Z,3.00
2018-12-11T21:45:25.928Z,3.27
2018-12-11T21:47:57.530Z,2.70
2018-12-11T21:50:32.804Z,3.13
2018-12-11T21:53:05.816Z,2.90
2018-12-11T21:55:37.173Z,3.63
2018-12-11T21:58:10.566Z,3.23
2018-12-11T22:00:43.824Z,3.53
2018-12-11T22:03:17.198Z,2.87
2018-12-11T22:05:50.884Z,2.90
2018-12-11T22:08:23.616Z,3.47
2018-12-11T22:10:56.708Z,2.97
2018-12-11T22:13:29.490Z,3.20
2018-12-11T22:16:06.381Z,2.80
2018-12-11T22:18:39.723Z,2.90
2018-12-11T22:21:11.108Z,4.27
2018-12-11T22:23:44.451Z,3.10
2018-12-11T22:26:17.498Z,3.17
2018-12-11T22:28:48.784Z,3.50
2018-12-11T22:31:20.088Z,3.03
2018-12-11T22:33:51.256Z,5.13
2018-12-11T22:36:24.763Z,3.23
2018-12-11T22:38:59.811Z,3.23
2018-12-11T22:41:32.836Z,2.80
2018-12-11T22:44:05.943Z,2.70
2018-12-11T22:46:36.712Z,3.20
2018-12-11T22:49:09.958Z,2.67
2018-12-11T22:51:43.395Z,2.57
2018-12-11T22:54:14.736Z,3.03
2018-12-11T22:56:48.163Z,3.00
2018-12-11T22:59:21.335Z,2.60
2018-12-11T23:01:53.118Z,2.70
2018-12-11T23:04:26.458Z,2.43
2018-12-11T23:06:57.935Z,3.00
2018-12-11T23:09:30.983Z,3.07
2018-12-11T23:12:02.278Z,3.17
2018-12-11T23:14:36.065Z,2.80
2018-12-11T23:17:08.954Z,2.97
2018-12-11T23:19:40.227Z,3.23
2018-12-11T23:22:13.413Z,2.70
2018-12-11T23:24:45.263Z,3.33
2018-12-11T23:27:18.307Z,3.70
2018-12-11T23:29:51.337Z,4.70
2018-12-11T23:32:22.878Z,3.47
2018-12-11T23:34:56.299Z,3.83
2018-12-11T23:37:30.070Z,3.00
2018-12-11T23:40:01.937Z,2.90
2018-12-11T23:42:33.074Z,2.77
2018-12-11T23:45:06.276Z,3.30
2018-12-11T23:47:39.268Z,3.73
2018-12-11T23:50:10.696Z,3.50
2018-12-11T23:52:46.798Z,3.07
2018-12-11T23:55:25.223Z,5.13
2018-12-11T23:57:58.634Z,3.17
